createdAt,value
2023-02-21T00:02:02.654Z,26.60
2023-02-21T00:04:48.045Z,30.17
2023-02-21T00:07:33.567Z,28.27
2023-02-21T00:10:24.264Z,30.70
2023-02-21T00:13:10.319Z,27.33
2023-02-21T00:15:55.740Z,26.10
2023-02-21T00:18:41.164Z,28.10
2023-02-21T00:21:27.651Z,29.13
2023-02-21T00:24:13.046Z,28.67
2023-02-21T00:27:00.322Z,30.20
2023-02-21T00:29:45.904Z,32.73
2023-02-21T00:32:32.407Z,33.70
2023-02-21T00:35:17.868Z,28.53
2023-02-21T00:38:03.907Z,28.20
2023-02-21T00:40:49.355Z,31.50
2023-02-21T00:43:36.814Z,30.73
2023-02-21T00:46:24.888Z,32.50
2023-02-21T00:49:10.886Z,31.43
2023-02-21T00:51:56.175Z,28.00
2023-02-21T00:54:41.727Z,30.17
2023-02-21T00:57:27.047Z,32.03
2023-02-21T01:00:14.168Z,32.20
2023-02-21T01:03:00.236Z,29.27
2023-02-21T01:05:45.705Z,27.27
2023-02-21T01:08:34.132Z,31.00
2023-02-21T01:11:19.541Z,32.70
2023-02-21T01:14:04.951Z,27.40
2023-02-21T01:16:53.066Z,30.90
2023-02-21T01:19:39.978Z,29.73
2023-02-21T01:22:25.273Z,31.83
2023-02-21T01:25:13.405Z,29.53
2023-02-21T01:27:58.924Z,27.70
2023-02-21T01:30:44.497Z,27.70
2023-02-21T01:33:33.250Z,30.40
2023-02-21T01:36:18.846Z,26.17
2023-02-21T01:39:04.176Z,30.40
2023-02-21T01:41:49.592Z,24.77
2023-02-21T01:44:56.989Z,26.70
2023-02-21T01:47:42.724Z,28.53
2023-02-21T01:50:33.777Z,26.03
2023-02-21T01:53:20.150Z,29.77
2023-02-21T01:56:06.447Z,31.07
2023-02-21T01:58:52.293Z,26.90
2023-02-21T02:01:44.992Z,31.30
2023-02-21T02:04:33.931Z,26.57
2023-02-21T02:07:21.362Z,28.37
2023-02-21T02:10:07.151Z,26.70
2023-02-21T02:13:13.293Z,27.23
2023-02-21T02:15:47.360Z,28.00
2023-02-21T02:18:35.540Z,28.47
2023-02-21T02:21:48.793Z,27.80
2023-02-21T02:24:48.234Z,25.57
2023-02-21T02:27:37.629Z,26.40
2023-02-21T02:30:39.214Z,25.20
2023-02-21T02:33:29.046Z,28.90
2023-02-21T02:36:01.820Z,26.70
2023-02-21T02:38:36.258Z,24.50
2023-02-21T02:41:09.812Z,23.43
2023-02-21T02:43:43.276Z,26.03
2023-02-21T02:46:15.917Z,24.33
2023-02-21T02:48:47.603Z,25.73
2023-02-21T02:51:17.706Z,21.60
2023-02-21T02:53:46.855Z,25.53
2023-02-21T02:56:17.159Z,25.67
2023-02-21T02:58:49.318Z,26.40
2023-02-21T03:01:28.981Z,23.70
2023-02-21T03:04:12.543Z,22.60
2023-02-21T03:06:48.477Z,27.70
2023-02-21T03:09:20.356Z,21.80
2023-02-21T03:11:54.379Z,23.20
2023-02-21T03:14:23.754Z,22.73
2023-02-21T03:16:56.280Z,22.67
2023-02-21T03:19:32.846Z,22.10
2023-02-21T03:22:04.957Z,26.53
2023-02-21T03:24:33.786Z,20.50
2023-02-21T03:27:06.028Z,22.23
2023-02-21T03:29:52.532Z,22.93
2023-02-21T03:32:23.971Z,22.17
2023-02-21T03:34:51.982Z,22.57
2023-02-21T03:37:31.348Z,25.37
2023-02-21T03:39:59.614Z,19.83
2023-02-21T03:42:27.688Z,22.20
2023-02-21T03:44:55.987Z,22.40
2023-02-21T03:47:24.754Z,22.50
2023-02-21T03:49:53.715Z,22.53
2023-02-21T03:52:23.788Z,22.03
2023-02-21T03:54:52.807Z,21.00
2023-02-21T03:57:23.014Z,21.87
2023-02-21T03:59:54.355Z,21.90
2023-02-21T04:02:22.590Z,22.33
2023-02-21T04:04:50.640Z,20.70
2023-02-21T04:07:22.939Z,18.43
2023-02-21T04:09:51.890Z,20.90
2023-02-21T04:12:26.064Z,19.17
2023-02-21T04:14:56.394Z,18.10
2023-02-21T04:17:24.334Z,23.07
2023-02-21T04:19:53.287Z,21.43
2023-02-21T04:22:22.439Z,18.53
2023-02-21T04:24:52.018Z,21.27
2023-02-21T04:27:21.024Z,18.33
2023-02-21T04:29:54.645Z,18.97
2023-02-21T04:32:22.867Z,21.07
2023-02-21T04:34:50.945Z,19.70
2023-02-21T04:37:19.182Z,19.13
2023-02-21T04:39:48.399Z,20.90
2023-02-21T04:42:19.381Z,18.47
2023-02-21T04:44:59.449Z,20.67
2023-02-21T04:47:29.757Z,20.07
2023-02-21T04:49:58.769Z,20.83
2023-02-21T04:52:27.248Z,16.97
2023-02-21T04:54:55.564Z,18.90
2023-02-21T04:57:25.356Z,19.93
2023-02-21T04:59:58.007Z,19.57
2023-02-21T05:02:26.217Z,20.17
2023-02-21T05:04:54.658Z,22.03
2023-02-21T05:07:23.152Z,20.37
2023-02-21T05:09:51.355Z,19.87
2023-02-21T05:12:25.417Z,17.40
2023-02-21T05:14:57.868Z,17.73
2023-02-21T05:17:28.976Z,19.27
2023-02-21T05:19:57.096Z,20.07
2023-02-21T05:22:25.233Z,20.30
2023-02-21T05:24:53.353Z,20.70
2023-02-21T05:27:23.017Z,19.33
2023-02-21T05:29:52.281Z,22.97
2023-02-21T05:32:22.961Z,22.40
2023-02-21T05:34:50.974Z,23.07
2023-02-21T05:37:21.245Z,19.90
2023-02-21T05:39:49.720Z,21.57
2023-02-21T05:42:17.808Z,17.70
2023-02-21T05:44:46.404Z,19.50
2023-02-21T05:47:14.861Z,17.93
2023-02-21T05:49:44.580Z,20.27
2023-02-21T05:52:13.813Z,16.27
2023-02-21T05:54:41.862Z,14.20
2023-02-21T05:57:10.047Z,15.97
2023-02-21T05:59:39.576Z,19.63
2023-02-21T06:02:07.544Z,16.77
2023-02-21T06:04:35.699Z,20.00
2023-02-21T06:07:05.095Z,18.10
2023-02-21T06:09:33.167Z,20.23
2023-02-21T06:12:01.371Z,16.13
2023-02-21T06:14:29.578Z,15.43
2023-02-21T06:16:57.628Z,20.63
2023-02-21T06:19:25.997Z,20.43
2023-02-21T06:21:54.086Z,16.60
2023-02-21T06:24:23.569Z,19.53
2023-02-21T06:26:51.769Z,18.67
2023-02-21T06:29:20.006Z,19.63
2023-02-21T06:31:48.078Z,18.40
2023-02-21T06:34:16.247Z,17.57
2023-02-21T06:36:44.300Z,18.87
2023-02-21T06:39:13.499Z,19.27
2023-02-21T06:41:42.908Z,18.00
2023-02-21T06:44:10.973Z,18.37
2023-02-21T06:46:39.345Z,19.00
2023-02-21T06:49:07.504Z,20.60
2023-02-21T06:51:36.449Z,18.00
2023-02-21T06:54:05.646Z,21.33
2023-02-21T06:56:33.645Z,18.07
2023-02-21T06:59:03.064Z,19.23
2023-02-21T07:01:31.360Z,20.07
2023-02-21T07:04:00.004Z,18.63
2023-02-21T07:06:29.827Z,20.30
2023-02-21T07:08:58.246Z,16.60
2023-02-21T07:11:26.274Z,18.17
2023-02-21T07:13:56.691Z,18.00
2023-02-21T07:16:26.517Z,19.17
2023-02-21T07:18:54.650Z,21.47
2023-02-21T07:21:22.960Z,19.67
2023-02-21T07:23:52.081Z,23.77
2023-02-21T07:26:20.831Z,19.10
2023-02-21T07:28:49.649Z,22.57
2023-02-21T07:31:19.874Z,18.67
2023-02-21T07:33:49.428Z,23.03
2023-02-21T07:36:17.906Z,20.20
2023-02-21T07:38:45.895Z,19.30
2023-02-21T07:41:15.820Z,19.20
2023-02-21T07:43:43.990Z,17.80
2023-02-21T07:46:12.426Z,19.53
2023-02-21T07:48:40.697Z,22.40
2023-02-21T07:51:10.809Z,21.57
2023-02-21T07:53:38.918Z,17.97
2023-02-21T07:56:07.323Z,18.03
2023-02-21T07:58:37.438Z,17.97
2023-02-21T08:01:06.126Z,16.80
2023-02-21T08:03:34.456Z,19.73
2023-02-21T08:06:02.915Z,17.47
2023-02-21T08:08:34.398Z,19.10
2023-02-21T08:11:02.592Z,18.77
2023-02-21T08:13:30.589Z,22.30
2023-02-21T08:16:01.341Z,24.43
2023-02-21T08:18:29.452Z,22.57
2023-02-21T08:20:58.025Z,25.17
2023-02-21T08:23:26.228Z,23.00
2023-02-21T08:25:55.685Z,26.43
2023-02-21T08:28:23.977Z,28.13
2023-02-21T08:30:54.184Z,26.13
2023-02-21T08:33:22.317Z,23.80
2023-02-21T08:35:50.438Z,23.73
2023-02-21T08:38:19.402Z,25.13
2023-02-21T08:40:47.426Z,23.40
2023-02-21T08:43:16.957Z,22.67
2023-02-21T08:45:45.697Z,25.07
2023-02-21T08:48:13.928Z,25.17
2023-02-21T08:50:41.866Z,21.90
2023-02-21T08:53:11.832Z,20.43
2023-02-21T08:55:41.047Z,24.23
2023-02-21T08:58:10.924Z,24.27
2023-02-21T09:00:41.207Z,23.43
2023-02-21T09:03:09.513Z,23.70
2023-02-21T09:05:51.601Z,26.83
2023-02-21T09:08:22.164Z,27.87
2023-02-21T09:10:50.440Z,26.60
2023-02-21T09:13:18.978Z,24.87
2023-02-21T09:15:48.789Z,29.07
2023-02-21T09:18:17.683Z,25.60
2023-02-21T09:20:52.347Z,29.00
2023-02-21T09:23:21.508Z,24.77
2023-02-21T09:25:49.775Z,28.13
2023-02-21T09:28:18.717Z,25.10
2023-02-21T09:30:48.995Z,26.83
2023-02-21T09:33:17.594Z,25.27
2023-02-21T09:35:54.338Z,29.70
2023-02-21T09:38:23.049Z,31.73
2023-02-21T09:40:53.252Z,30.17
2023-02-21T09:43:54.961Z,29.27
2023-02-21T09:46:31.204Z,23.70
2023-02-21T09:49:00.026Z,28.53
2023-02-21T09:51:28.216Z,25.60
2023-02-21T09:53:59.068Z,23.67
2023-02-21T09:56:31.049Z,25.70
2023-02-21T09:58:59.900Z,24.33
2023-02-21T10:01:45.312Z,27.57
2023-02-21T10:04:22.493Z,25.20
2023-02-21T10:06:53.044Z,27.83
2023-02-21T10:09:27.976Z,29.07
2023-02-21T10:12:04.111Z,25.33
2023-02-21T10:14:42.034Z,26.57
2023-02-21T10:17:18.357Z,23.33
2023-02-21T10:19:48.837Z,23.73
2023-02-21T10:22:22.144Z,23.90
2023-02-21T10:24:51.612Z,24.00
2023-02-21T10:27:21.296Z,28.83
2023-02-21T10:29:52.354Z,33.20
2023-02-21T10:32:23.004Z,28.13
2023-02-21T10:34:51.258Z,26.47
2023-02-21T10:37:32.947Z,27.17
2023-02-21T10:40:07.605Z,28.07
2023-02-21T10:42:39.986Z,25.07
2023-02-21T10:45:08.946Z,26.90
2023-02-21T10:47:49.585Z,26.13
2023-02-21T10:50:17.687Z,26.13
2023-02-21T10:52:49.715Z,28.00
2023-02-21T10:55:32.616Z,24.93
2023-02-21T10:58:09.787Z,26.70
2023-02-21T11:00:39.415Z,26.33
2023-02-21T11:03:17.128Z,30.10
2023-02-21T11:05:50.644Z,26.80
2023-02-21T11:08:35.671Z,28.87
2023-02-21T11:11:04.031Z,30.13
2023-02-21T11:13:33.791Z,36.20
2023-02-21T11:16:10.706Z,26.93
2023-02-21T11:18:40.528Z,26.93
2023-02-21T11:21:14.133Z,26.60
2023-02-21T11:23:46.939Z,23.67
2023-02-21T11:26:16.631Z,25.57
2023-02-21T11:28:46.462Z,27.57
2023-02-21T11:31:18.007Z,27.00
2023-02-21T11:33:52.628Z,28.60
2023-02-21T11:36:22.197Z,28.50
2023-02-21T11:39:02.713Z,24.53
2023-02-21T11:41:34.779Z,25.87
2023-02-21T11:44:03.077Z,23.93
2023-02-21T11:46:36.848Z,25.63
2023-02-21T11:49:09.996Z,24.33
2023-02-21T11:51:43.308Z,24.80
2023-02-21T11:54:12.233Z,24.40
2023-02-21T11:56:48.918Z,23.67
2023-02-21T11:59:27.790Z,22.20
2023-02-21T12:02:22.023Z,21.97
2023-02-21T12:05:04.850Z,21.23
2023-02-21T12:07:40.644Z,22.97
2023-02-21T12:10:28.452Z,20.27
2023-02-21T12:13:02.777Z,21.30
2023-02-21T12:15:46.573Z,20.37
2023-02-21T12:18:29.540Z,21.57
2023-02-21T12:21:10.652Z,20.20
2023-02-21T12:23:48.707Z,20.60
2023-02-21T12:26:28.928Z,19.83
2023-02-21T12:29:08.410Z,23.57
2023-02-21T12:31:50.212Z,26.77
2023-02-21T12:34:30.374Z,21.23
2023-02-21T12:37:18.366Z,27.23
2023-02-21T12:40:06.465Z,25.77
2023-02-21T12:42:55.696Z,29.90
2023-02-21T12:45:47.479Z,28.30
2023-02-21T12:48:20.978Z,26.77
2023-02-21T12:50:52.169Z,26.57
2023-02-21T12:53:24.134Z,24.83
2023-02-21T12:55:56.985Z,27.73
2023-02-21T12:58:28.425Z,23.77
2023-02-21T13:01:00.110Z,24.93
2023-02-21T13:03:38.427Z,27.17
2023-02-21T13:06:10.436Z,26.80
2023-02-21T13:08:50.128Z,25.63
2023-02-21T13:11:21.463Z,23.93
2023-02-21T13:13:49.557Z,25.43
2023-02-21T13:16:18.779Z,24.60
2023-02-21T13:18:49.921Z,26.07
2023-02-21T13:21:34.506Z,25.73
2023-02-21T13:24:20.804Z,22.20
2023-02-21T13:27:11.615Z,24.03
2023-02-21T13:29:40.597Z,21.60
2023-02-21T13:32:10.507Z,21.67
2023-02-21T13:34:41.280Z,26.13
2023-02-21T13:37:16.332Z,25.53
2023-02-21T13:39:48.231Z,23.17
2023-02-21T13:42:18.768Z,27.43
2023-02-21T13:44:48.859Z,23.07
2023-02-21T13:47:18.321Z,21.37
2023-02-21T13:49:55.659Z,21.87
2023-02-21T13:53:00.766Z,26.33
2023-02-21T13:55:32.832Z,26.10
2023-02-21T13:58:37.692Z,24.63
2023-02-21T14:01:25.992Z,24.73
2023-02-21T14:03:57.552Z,26.87
2023-02-21T14:06:38.553Z,25.70
2023-02-21T14:09:15.009Z,23.37
2023-02-21T14:11:50.038Z,28.63
2023-02-21T14:14:24.589Z,27.37
2023-02-21T14:17:00.300Z,24.67
2023-02-21T14:19:35.656Z,28.93
2023-02-21T14:22:06.631Z,30.40
2023-02-21T14:24:38.356Z,30.93
2023-02-21T14:27:38.326Z,26.33
2023-02-21T14:30:34.431Z,26.40
2023-02-21T14:33:17.813Z,28.20
2023-02-21T14:35:49.102Z,23.63
2023-02-21T14:38:20.672Z,28.07
2023-02-21T14:40:59.584Z,25.10
2023-02-21T14:43:42.122Z,29.53
2023-02-21T14:46:44.748Z,26.10
2023-02-21T14:49:41.349Z,26.90
2023-02-21T14:52:31.841Z,29.13
2023-02-21T14:55:11.054Z,25.00
2023-02-21T14:57:59.102Z,25.90
2023-02-21T15:00:33.480Z,28.03
2023-02-21T15:03:07.082Z,27.80
2023-02-21T15:05:39.725Z,28.70
2023-02-21T15:08:14.210Z,22.30
2023-02-21T15:10:44.382Z,29.73
2023-02-21T15:13:24.587Z,24.17
2023-02-21T15:15:59.473Z,26.23
2023-02-21T15:18:29.669Z,23.47
2023-02-21T15:21:07.653Z,26.33
2023-02-21T15:23:36.107Z,25.20
2023-02-21T15:26:18.611Z,28.27
2023-02-21T15:28:46.699Z,27.90
2023-02-21T15:31:18.323Z,29.57
2023-02-21T15:33:46.697Z,33.00
2023-02-21T15:36:20.816Z,30.93
2023-02-21T15:38:51.891Z,35.43
2023-02-21T15:41:28.701Z,33.00
2023-02-21T15:44:01.066Z,35.57
2023-02-21T15:46:33.721Z,33.30
2023-02-21T15:49:04.596Z,36.23
2023-02-21T15:51:33.599Z,34.67
2023-02-21T15:54:27.786Z,41.23
2023-02-21T15:57:18.535Z,36.77
2023-02-21T15:59:46.616Z,38.60
2023-02-21T16:02:21.503Z,39.90
2023-02-21T16:04:51.143Z,37.83
2023-02-21T16:07:23.585Z,36.13
2023-02-21T16:09:59.356Z,38.17
2023-02-21T16:12:31.423Z,40.10
2023-02-21T16:15:03.196Z,38.50
2023-02-21T16:17:34.720Z,41.77
2023-02-21T16:20:13.203Z,41.80
2023-02-21T16:23:06.209Z,43.57
2023-02-21T16:25:33.566Z,46.23
2023-02-21T16:28:01.904Z,44.57
2023-02-21T16:30:32.375Z,45.57
2023-02-21T16:33:04.287Z,49.43
2023-02-21T16:35:33.216Z,48.60
2023-02-21T16:38:02.098Z,55.50
2023-02-21T16:40:31.572Z,50.97
2023-02-21T16:43:01.217Z,70.00
2023-02-21T16:45:29.476Z,50.83
2023-02-21T16:47:58.939Z,140.47
2023-02-21T16:50:30.797Z,62.50
2023-02-21T16:52:59.762Z,57.83
2023-02-21T16:55:53.862Z,57.37
2023-02-21T16:58:26.557Z,66.37
2023-02-21T17:00:56.767Z,64.60
2023-02-21T17:03:25.224Z,68.40
2023-02-21T17:05:55.364Z,66.57
2023-02-21T17:08:23.538Z,64.20
2023-02-21T17:10:51.716Z,73.63
2023-02-21T17:13:19.827Z,74.63
2023-02-21T17:15:48.589Z,71.87
2023-02-21T17:18:17.178Z,70.23
2023-02-21T17:20:45.358Z,83.37
2023-02-21T17:23:14.720Z,95.53
2023-02-21T17:25:43.089Z,76.67
2023-02-21T17:28:11.157Z,83.33
2023-02-21T17:30:39.333Z,80.83
2023-02-21T17:33:08.196Z,81.37
2023-02-21T17:35:36.262Z,85.40
2023-02-21T17:38:05.488Z,90.90
2023-02-21T17:40:35.125Z,85.00
2023-02-21T17:43:03.401Z,84.63
2023-02-21T17:45:31.513Z,82.60
2023-02-21T17:47:59.599Z,85.47
2023-02-21T17:50:27.689Z,88.03
2023-02-21T17:52:55.926Z,76.80
2023-02-21T17:55:26.536Z,85.63
2023-02-21T17:57:56.052Z,82.50
2023-02-21T18:00:26.778Z,87.50
2023-02-21T18:02:56.202Z,78.10
2023-02-21T18:05:24.841Z,79.90
2023-02-21T18:07:54.370Z,74.10
2023-02-21T18:10:24.269Z,75.13
2023-02-21T18:12:52.837Z,80.87
2023-02-21T18:15:22.995Z,82.10
2023-02-21T18:17:51.114Z,80.73
2023-02-21T18:20:19.526Z,77.10
2023-02-21T18:22:47.618Z,78.87
2023-02-21T18:25:17.461Z,74.80
2023-02-21T18:27:46.394Z,76.47
2023-02-21T18:30:16.119Z,74.90
2023-02-21T18:32:46.536Z,77.57
2023-02-21T18:35:15.830Z,78.40
2023-02-21T18:37:45.923Z,80.07
2023-02-21T18:40:14.993Z,79.93
2023-02-21T18:42:43.374Z,74.03
2023-02-21T18:45:12.781Z,75.10
2023-02-21T18:47:40.927Z,77.77
2023-02-21T18:50:17.188Z,82.70
2023-02-21T18:52:45.542Z,85.53
2023-02-21T18:55:13.685Z,83.23
2023-02-21T18:57:41.897Z,80.77
2023-02-21T19:00:11.743Z,82.93
2023-02-21T19:02:40.013Z,84.53
2023-02-21T19:05:08.494Z,81.30
2023-02-21T19:07:38.100Z,87.13
2023-02-21T19:10:06.972Z,88.53
2023-02-21T19:12:35.183Z,84.27
2023-02-21T19:15:03.315Z,86.40
2023-02-21T19:17:31.586Z,87.83
2023-02-21T19:20:00.519Z,78.77
2023-02-21T19:22:32.720Z,85.70
2023-02-21T19:25:02.568Z,78.47
2023-02-21T19:27:35.186Z,85.03
2023-02-21T19:30:08.588Z,80.63
2023-02-21T19:32:38.230Z,81.20
2023-02-21T19:35:09.487Z,72.20
2023-02-21T19:37:39.307Z,76.23
2023-02-21T19:40:13.057Z,74.97
2023-02-21T19:42:49.332Z,78.57
2023-02-21T19:45:18.895Z,88.43
2023-02-21T19:47:48.373Z,82.53
2023-02-21T19:50:26.541Z,73.40
2023-02-21T19:52:56.165Z,84.63
2023-02-21T19:55:26.644Z,80.63
2023-02-21T19:57:55.542Z,74.23
2023-02-21T20:00:26.201Z,83.93
2023-02-21T20:02:55.269Z,77.00
2023-02-21T20:05:23.783Z,75.87
2023-02-21T20:07:53.021Z,80.67
2023-02-21T20:10:25.419Z,78.20
2023-02-21T20:12:57.118Z,71.37
2023-02-21T20:15:26.020Z,75.83
2023-02-21T20:17:54.920Z,75.13
2023-02-21T20:20:24.328Z,82.53
2023-02-21T20:22:52.604Z,74.87
2023-02-21T20:25:21.216Z,81.37
2023-02-21T20:27:49.789Z,74.00
2023-02-21T20:30:19.933Z,78.20
2023-02-21T20:32:48.306Z,87.33
2023-02-21T20:35:16.987Z,82.07
2023-02-21T20:37:51.035Z,78.00
2023-02-21T20:40:19.939Z,82.17
2023-02-21T20:42:48.420Z,77.93
2023-02-21T20:45:18.807Z,81.17
2023-02-21T20:47:49.034Z,77.70
2023-02-21T20:50:20.192Z,78.70
2023-02-21T20:52:49.390Z,87.03
2023-02-21T20:55:19.613Z,81.83
2023-02-21T20:57:48.033Z,87.20
2023-02-21T21:00:18.703Z,72.83
2023-02-21T21:02:49.465Z,75.60
2023-02-21T21:05:18.711Z,76.77
2023-02-21T21:07:47.105Z,76.00
2023-02-21T21:10:16.759Z,75.13
2023-02-21T21:12:45.546Z,77.00
2023-02-21T21:15:14.472Z,72.87
2023-02-21T21:17:43.208Z,83.77
2023-02-21T21:20:16.514Z,75.50
2023-02-21T21:22:45.052Z,85.73
2023-02-21T21:25:13.652Z,78.10
2023-02-21T21:27:42.473Z,77.33
2023-02-21T21:30:12.417Z,79.17
2023-02-21T21:32:41.191Z,76.17
2023-02-21T21:35:09.762Z,82.77
2023-02-21T21:37:39.430Z,78.67
2023-02-21T21:40:16.487Z,85.70
2023-02-21T21:42:45.421Z,78.83
2023-02-21T21:45:19.390Z,81.27
2023-02-21T21:47:48.399Z,81.90
2023-02-21T21:50:16.581Z,74.13
2023-02-21T21:52:50.776Z,77.17
2023-02-21T21:55:20.520Z,80.10
2023-02-21T21:57:53.254Z,77.90
2023-02-21T22:00:26.062Z,80.83
2023-02-21T22:02:57.629Z,73.17
2023-02-21T22:05:26.084Z,74.73
2023-02-21T22:07:56.043Z,82.20
2023-02-21T22:10:25.553Z,69.37
2023-02-21T22:12:56.023Z,87.83
2023-02-21T22:15:25.467Z,75.07
2023-02-21T22:17:53.826Z,73.63
2023-02-21T22:20:28.398Z,65.03
2023-02-21T22:22:59.119Z,80.87
2023-02-21T22:25:30.251Z,67.40
2023-02-21T22:27:59.000Z,76.80
2023-02-21T22:30:27.248Z,79.87
2023-02-21T22:32:56.459Z,76.70
2023-02-21T22:35:25.244Z,78.47
2023-02-21T22:37:54.996Z,77.40
2023-02-21T22:40:26.052Z,75.97
2023-02-21T22:42:55.498Z,76.97
2023-02-21T22:45:26.091Z,80.23
2023-02-21T22:47:55.927Z,79.50
2023-02-21T22:50:25.628Z,80.60
2023-02-21T22:52:56.179Z,82.77
2023-02-21T22:55:27.410Z,79.80
2023-02-21T22:57:57.214Z,81.17
2023-02-21T23:00:27.732Z,87.63
2023-02-21T23:02:55.753Z,86.77
2023-02-21T23:05:25.008Z,90.73
2023-02-21T23:07:57.660Z,80.13
2023-02-21T23:10:28.808Z,81.17
2023-02-21T23:13:01.910Z,85.30
2023-02-21T23:15:30.057Z,87.67
2023-02-21T23:18:00.921Z,91.03
2023-02-21T23:20:29.837Z,90.53
2023-02-21T23:22:58.876Z,87.67
2023-02-21T23:25:35.177Z,86.83
2023-02-21T23:28:05.582Z,93.83
2023-02-21T23:30:42.165Z,91.80
2023-02-21T23:33:15.134Z,89.47
2023-02-21T23:35:44.868Z,90.30
2023-02-21T23:38:19.573Z,84.30
2023-02-21T23:40:56.014Z,79.30
2023-02-21T23:43:26.614Z,83.60
2023-02-21T23:45:57.972Z,93.83
2023-02-21T23:48:25.986Z,85.47
2023-02-21T23:50:57.775Z,87.63
2023-02-21T23:53:27.668Z,82.20
2023-02-21T23:55:57.950Z,83.50
2023-02-21T23:58:28.020Z,74.97
